createdAt,value
2017-01-06T00:00:15.242Z,1032.14
2017-01-06T00:01:21.409Z,1032.15
2017-01-06T00:02:27.577Z,1032.16
2017-01-06T00:03:31.829Z,1032.14
2017-01-06T00:04:36.051Z,1032.17
2017-01-06T00:05:42.207Z,1032.17
2017-01-06T00:06:45.457Z,1032.2
2017-01-06T00:07:51.621Z,1032.17
2017-01-06T00:08:57.784Z,1032.17
2017-01-06T00:10:03.944Z,1032.19
2017-01-06T00:11:10.110Z,1032.2
2017-01-06T00:12:15.303Z,1032.25
2017-01-06T00:13:21.458Z,1032.27
2017-01-06T00:14:26.720Z,1032.26
2017-01-06T00:15:32.879Z,1032.3
2017-01-06T00:16:37.780Z,1032.3
2017-01-06T00:17:43.936Z,1032.33
2017-01-06T00:18:50.106Z,1032.32
2017-01-06T00:19:54.323Z,1032.32
2017-01-06T00:20:57.776Z,1032.32
2017-01-06T00:22:03.335Z,1032.3
2017-01-06T00:23:06.599Z,1032.32
2017-01-06T00:24:12.721Z,1032.3
2017-01-06T00:25:17.910Z,1032.3
2017-01-06T00:26:22.131Z,1032.31
2017-01-06T00:27:26.368Z,1032.31
2017-01-06T00:28:31.573Z,1032.29
2017-01-06T00:29:36.760Z,1032.3
2017-01-06T00:30:41.007Z,1032.29
2017-01-06T00:31:45.322Z,1032.29
2017-01-06T00:32:50.458Z,1032.29
2017-01-06T00:33:55.637Z,1032.29
2017-01-06T00:35:01.917Z,1032.29
2017-01-06T00:36:08.073Z,1032.31
2017-01-06T00:37:12.377Z,1032.31
2017-01-06T00:38:18.539Z,1032.33
2017-01-06T00:39:21.792Z,1032.34
2017-01-06T00:40:26.044Z,1032.31
2017-01-06T00:41:30.245Z,1032.29
2017-01-06T00:42:36.408Z,1032.27
2017-01-06T00:43:41.595Z,1032.25
2017-01-06T00:44:46.791Z,1032.3
2017-01-06T00:45:50.992Z,1032.29
2017-01-06T00:46:55.224Z,1032.3
2017-01-06T00:48:00.415Z,1032.24
2017-01-06T00:49:06.571Z,1032.32
2017-01-06T00:50:10.770Z,1032.29
2017-01-06T00:51:17.011Z,1032.29
2017-01-06T00:52:22.136Z,1032.31
2017-01-06T00:53:27.379Z,1032.28
2017-01-06T00:54:31.600Z,1032.28
2017-01-06T00:55:37.757Z,1032.25
2017-01-06T00:56:42.918Z,1032.29
2017-01-06T00:57:49.093Z,1032.31
2017-01-06T00:58:53.307Z,1032.29
2017-01-06T00:59:58.582Z,1032.28
2017-01-06T01:01:03.769Z,1032.27
2017-01-06T01:02:08.971Z,1032.29
2017-01-06T01:03:15.133Z,1032.27
2017-01-06T01:04:21.340Z,1032.26
2017-01-06T01:05:26.830Z,1032.24
2017-01-06T01:06:32.026Z,1032.21
2017-01-06T01:07:37.185Z,1032.2
2017-01-06T01:08:41.861Z,1032.22
2017-01-06T01:09:46.118Z,1032.24
2017-01-06T01:10:52.244Z,1032.25
2017-01-06T01:11:57.443Z,1032.28
2017-01-06T01:13:03.593Z,1032.27
2017-01-06T01:14:07.789Z,1032.36
2017-01-06T01:15:13.942Z,1032.31
2017-01-06T01:16:20.110Z,1032.31
2017-01-06T01:17:26.271Z,1032.3
2017-01-06T01:18:30.493Z,1032.3
2017-01-06T01:19:35.681Z,1032.31
2017-01-06T01:20:39.872Z,1032.33
2017-01-06T01:21:45.036Z,1032.3
2017-01-06T01:22:49.233Z,1032.33
2017-01-06T01:23:54.487Z,1032.35
2017-01-06T01:24:58.468Z,1032.3
2017-01-06T01:26:03.626Z,1032.26
2017-01-06T01:27:08.823Z,1032.26
2017-01-06T01:28:14.978Z,1032.31
2017-01-06T01:29:19.172Z,1032.29
2017-01-06T01:30:25.347Z,1032.28
2017-01-06T01:31:29.569Z,1032.27
2017-01-06T01:32:35.737Z,1032.29
2017-01-06T01:33:41.000Z,1032.28
2017-01-06T01:34:45.218Z,1032.33
2017-01-06T01:35:51.375Z,1032.31
2017-01-06T01:36:56.612Z,1032.33
2017-01-06T01:38:02.725Z,1032.27
2017-01-06T01:39:08.891Z,1032.36
2017-01-06T01:40:15.044Z,1032.34
2017-01-06T01:41:20.345Z,1032.39
2017-01-06T01:42:24.751Z,1032.35
2017-01-06T01:43:30.016Z,1032.39
2017-01-06T01:44:36.174Z,1032.36
2017-01-06T01:45:41.328Z,1032.32
2017-01-06T01:46:47.480Z,1032.36
2017-01-06T01:47:53.643Z,1032.35
2017-01-06T01:48:57.837Z,1032.34
2017-01-06T01:50:03.995Z,1032.34
2017-01-06T01:51:10.152Z,1032.32
2017-01-06T01:52:16.315Z,1032.37
2017-01-06T01:53:21.510Z,1032.31
2017-01-06T01:54:24.791Z,1032.3
2017-01-06T01:55:30.951Z,1032.28
2017-01-06T01:56:36.129Z,1032.29
2017-01-06T01:57:41.322Z,1032.34
2017-01-06T01:58:46.479Z,1032.31
2017-01-06T01:59:52.640Z,1032.27
2017-01-06T02:00:58.806Z,1032.34
2017-01-06T02:02:03.994Z,1032.3
2017-01-06T02:03:10.153Z,1032.34
2017-01-06T02:04:15.350Z,1032.31
2017-01-06T02:05:21.596Z,1032.31
2017-01-06T02:06:25.805Z,1032.31
2017-01-06T02:07:30.772Z,1032.32
2017-01-06T02:08:35.958Z,1032.33
2017-01-06T02:09:42.120Z,1032.3
2017-01-06T02:10:47.317Z,1032.29
2017-01-06T02:11:51.533Z,1032.31
2017-01-06T02:12:54.790Z,1032.3
2017-01-06T02:13:59.972Z,1032.32
2017-01-06T02:15:05.171Z,1032.33
2017-01-06T02:16:10.402Z,1032.3
2017-01-06T02:17:16.540Z,1032.31
2017-01-06T02:18:19.765Z,1032.33
2017-01-06T02:19:25.023Z,1032.34
2017-01-06T02:20:31.227Z,1032.32
2017-01-06T02:21:35.411Z,1032.37
2017-01-06T02:22:41.601Z,1032.34
2017-01-06T02:23:47.756Z,1032.38
2017-01-06T02:24:51.957Z,1032.38
2017-01-06T02:25:56.175Z,1032.39
2017-01-06T02:27:00.366Z,1032.31
2017-01-06T02:28:05.556Z,1032.31
2017-01-06T02:29:11.755Z,1032.35
2017-01-06T02:30:17.883Z,1032.29
2017-01-06T02:31:24.040Z,1032.33
2017-01-06T02:32:29.201Z,1032.38
2017-01-06T02:33:34.363Z,1032.43
2017-01-06T02:34:39.552Z,1032.47
2017-01-06T02:35:41.840Z,1032.49
2017-01-06T02:36:47.996Z,1032.51
2017-01-06T02:37:54.158Z,1032.51
2017-01-06T02:38:58.353Z,1032.54
2017-01-06T02:40:04.516Z,1032.54
2017-01-06T02:41:10.680Z,1032.52
2017-01-06T02:42:16.832Z,1032.53
2017-01-06T02:44:28.162Z,1032.53
2017-01-06T02:45:34.330Z,1032.5
2017-01-06T02:46:39.557Z,1032.56
2017-01-06T02:47:44.745Z,1032.56
2017-01-06T02:48:50.919Z,1032.57
2017-01-06T02:49:56.102Z,1032.56
2017-01-06T02:51:02.264Z,1032.57
2017-01-06T02:52:07.483Z,1032.58
2017-01-06T02:53:12.622Z,1032.58
2017-01-06T02:54:16.844Z,1032.59
2017-01-06T02:55:22.002Z,1032.58
2017-01-06T02:56:27.218Z,1032.58
2017-01-06T02:57:32.378Z,1032.6
2017-01-06T02:58:34.646Z,1032.6
2017-01-06T02:59:41.027Z,1032.63
2017-01-06T03:00:46.208Z,1032.62
2017-01-06T03:01:52.371Z,1032.67
2017-01-06T03:02:57.562Z,1032.63
2017-01-06T03:04:02.788Z,1032.67
2017-01-06T03:06:15.119Z,1032.71
2017-01-06T03:07:21.284Z,1032.68
2017-01-06T03:08:27.487Z,1032.74
2017-01-06T03:09:33.683Z,1032.74
2017-01-06T03:10:37.830Z,1032.75
2017-01-06T03:11:41.069Z,1032.76
2017-01-06T03:12:47.228Z,1032.75
2017-01-06T03:13:53.391Z,1032.78
2017-01-06T03:14:57.612Z,1032.8
2017-01-06T03:16:03.766Z,1032.8
2017-01-06T03:17:08.969Z,1032.83
2017-01-06T03:18:14.161Z,1032.84
2017-01-06T03:19:19.421Z,1032.84
2017-01-06T03:20:24.611Z,1032.84
2017-01-06T03:21:28.895Z,1032.86
2017-01-06T03:22:34.043Z,1032.83
2017-01-06T03:23:39.244Z,1032.83
2017-01-06T03:24:45.398Z,1032.8
2017-01-06T03:25:51.553Z,1032.81
2017-01-06T03:26:56.823Z,1032.79
2017-01-06T03:28:00.052Z,1032.75
2017-01-06T03:29:02.339Z,1032.74
2017-01-06T03:30:08.499Z,1032.76
2017-01-06T03:31:14.661Z,1032.71
2017-01-06T03:32:18.963Z,1032.71
2017-01-06T03:33:25.124Z,1032.71
2017-01-06T03:34:30.312Z,1032.71
2017-01-06T03:35:33.542Z,1032.7
2017-01-06T03:36:39.767Z,1032.79
2017-01-06T03:37:45.929Z,1032.8
2017-01-06T03:38:51.120Z,1032.78
2017-01-06T03:39:57.312Z,1032.77
2017-01-06T03:41:03.447Z,1032.78
2017-01-06T03:42:08.625Z,1032.79
2017-01-06T03:43:13.815Z,1032.77
2017-01-06T03:44:19.979Z,1032.75
2017-01-06T03:45:24.174Z,1032.77
2017-01-06T03:46:30.330Z,1032.7
2017-01-06T03:47:35.490Z,1032.67
2017-01-06T03:48:41.661Z,1032.71
2017-01-06T03:49:46.851Z,1032.74
2017-01-06T03:50:53.006Z,1032.8
2017-01-06T03:51:57.257Z,1032.77
2017-01-06T03:53:03.369Z,1032.78
2017-01-06T03:54:08.608Z,1032.76
2017-01-06T03:55:13.844Z,1032.77
2017-01-06T03:56:20.022Z,1032.75
2017-01-06T03:57:26.202Z,1032.75
2017-01-06T03:58:31.424Z,1032.76
2017-01-06T03:59:35.613Z,1032.69
2017-01-06T04:00:41.777Z,1032.71
2017-01-06T04:01:46.968Z,1032.72
2017-01-06T04:02:52.160Z,1032.7
2017-01-06T04:03:58.316Z,1032.69
2017-01-06T04:05:04.495Z,1032.72
2017-01-06T04:06:10.658Z,1032.7
2017-01-06T04:07:13.933Z,1032.69
2017-01-06T04:08:20.091Z,1032.74
2017-01-06T04:09:25.287Z,1032.69
2017-01-06T04:10:29.527Z,1032.69
2017-01-06T04:11:35.651Z,1032.69
2017-01-06T04:12:41.863Z,1032.68
2017-01-06T04:13:47.054Z,1032.7
2017-01-06T04:14:52.273Z,1032.72
2017-01-06T04:15:57.428Z,1032.7
2017-01-06T04:17:02.655Z,1032.67
2017-01-06T04:18:06.837Z,1032.72
2017-01-06T04:19:12.990Z,1032.72
2017-01-06T04:20:17.213Z,1032.75
2017-01-06T04:21:21.414Z,1032.71
2017-01-06T04:22:24.700Z,1032.74
2017-01-06T04:23:30.853Z,1032.81
2017-01-06T04:24:37.009Z,1032.81
2017-01-06T04:25:42.205Z,1032.8
2017-01-06T04:26:48.374Z,1032.79
2017-01-06T04:27:52.605Z,1032.79
2017-01-06T04:28:57.789Z,1032.79
2017-01-06T04:30:03.037Z,1032.76
2017-01-06T04:31:08.241Z,1032.77
2017-01-06T04:32:14.397Z,1032.78
2017-01-06T04:33:19.588Z,1032.74
2017-01-06T04:34:24.825Z,1032.75
2017-01-06T04:35:31.022Z,1032.75
2017-01-06T04:36:37.138Z,1032.77
2017-01-06T04:37:42.320Z,1032.76
2017-01-06T04:38:47.483Z,1032.78
2017-01-06T04:39:53.634Z,1032.79
2017-01-06T04:40:59.792Z,1032.85
2017-01-06T04:42:04.013Z,1032.85
2017-01-06T04:43:09.198Z,1032.85
2017-01-06T04:44:13.547Z,1032.86
2017-01-06T04:45:19.741Z,1032.94
2017-01-06T04:46:24.911Z,1032.93
2017-01-06T04:47:30.102Z,1032.96
2017-01-06T04:48:34.291Z,1032.93
2017-01-06T04:49:40.445Z,1032.94
2017-01-06T04:50:45.641Z,1033.01
2017-01-06T04:51:49.902Z,1032.99
2017-01-06T04:52:56.086Z,1032.97
2017-01-06T04:53:59.392Z,1033
2017-01-06T04:55:03.616Z,1032.99
2017-01-06T04:56:07.842Z,1033.01
2017-01-06T04:57:14.050Z,1033.03
2017-01-06T04:58:18.279Z,1033.01
2017-01-06T04:59:24.538Z,1033.02
2017-01-06T05:00:30.714Z,1033
2017-01-06T05:01:35.904Z,1033.08
2017-01-06T05:02:42.061Z,1033.07
2017-01-06T05:03:47.263Z,1033.09
2017-01-06T05:04:51.454Z,1033.07
2017-01-06T05:05:57.612Z,1033.01
2017-01-06T05:07:02.801Z,1033
2017-01-06T05:08:06.060Z,1033.02
2017-01-06T05:09:10.278Z,1033.06
2017-01-06T05:10:16.435Z,1033.1
2017-01-06T05:11:21.624Z,1033.1
2017-01-06T05:12:27.803Z,1033.12
2017-01-06T05:13:31.996Z,1033.11
2017-01-06T05:14:37.185Z,1033.14
2017-01-06T05:15:43.345Z,1033.19
2017-01-06T05:16:47.566Z,1033.17
2017-01-06T05:17:52.113Z,1033.16
2017-01-06T05:18:56.325Z,1033.17
2017-01-06T05:20:00.557Z,1033.15
2017-01-06T05:21:06.730Z,1033.2
2017-01-06T05:22:12.890Z,1033.14
2017-01-06T05:23:17.083Z,1033.18
2017-01-06T05:24:23.246Z,1033.17
2017-01-06T05:25:29.405Z,1033.19
2017-01-06T05:26:34.604Z,1033.16
2017-01-06T05:27:40.757Z,1033.16
2017-01-06T05:28:44.958Z,1033.18
2017-01-06T05:29:50.150Z,1033.14
2017-01-06T05:30:55.341Z,1033.15
2017-01-06T05:32:01.494Z,1033.16
2017-01-06T05:33:06.773Z,1033.17
2017-01-06T05:34:12.928Z,1033.17
2017-01-06T05:35:19.088Z,1033.18
2017-01-06T05:36:24.317Z,1033.22
2017-01-06T05:37:30.481Z,1033.16
2017-01-06T05:38:35.662Z,1033.18
2017-01-06T05:39:40.902Z,1033.22
2017-01-06T05:40:45.084Z,1033.24
2017-01-06T05:41:50.274Z,1033.25
2017-01-06T05:42:55.454Z,1033.21
2017-01-06T05:44:00.664Z,1033.23
2017-01-06T05:45:04.883Z,1033.21
2017-01-06T05:46:10.067Z,1033.24
2017-01-06T05:47:15.231Z,1033.26
2017-01-06T05:48:21.390Z,1033.26
2017-01-06T05:49:25.590Z,1033.25
2017-01-06T05:50:27.843Z,1033.29
2017-01-06T05:51:33.076Z,1033.25
2017-01-06T05:52:39.195Z,1033.2
2017-01-06T05:53:45.363Z,1033.22
2017-01-06T05:54:51.526Z,1033.29
2017-01-06T05:55:57.682Z,1033.28
2017-01-06T05:57:02.875Z,1033.23
2017-01-06T05:58:08.068Z,1033.23
2017-01-06T05:59:14.232Z,1033.23
2017-01-06T06:00:19.576Z,1033.24
2017-01-06T06:01:22.801Z,1033.22
2017-01-06T06:02:28.965Z,1033.19
2017-01-06T06:03:35.154Z,1033.2
2017-01-06T06:04:40.305Z,1033.14
2017-01-06T06:05:43.560Z,1033.15
2017-01-06T06:06:48.737Z,1033.14
2017-01-06T06:07:53.931Z,1033.2
2017-01-06T06:08:58.125Z,1033.23
2017-01-06T06:10:04.284Z,1033.26
2017-01-06T06:11:08.504Z,1033.25
2017-01-06T06:12:13.673Z,1033.27
2017-01-06T06:13:18.874Z,1033.26
2017-01-06T06:14:23.096Z,1033.27
2017-01-06T06:15:29.254Z,1033.26
2017-01-06T06:16:33.473Z,1033.24
2017-01-06T06:17:38.654Z,1033.25
2017-01-06T06:18:43.817Z,1033.24
2017-01-06T06:19:49.108Z,1033.2
2017-01-06T06:20:52.370Z,1033.18
2017-01-06T06:21:58.573Z,1033.2
2017-01-06T06:23:04.685Z,1033.15
2017-01-06T06:24:10.844Z,1033.12
2017-01-06T06:25:17.003Z,1033.1
2017-01-06T06:26:23.170Z,1033.09
2017-01-06T06:27:28.367Z,1033.1
2017-01-06T06:28:32.557Z,1033.09
2017-01-06T06:29:37.738Z,1033.11
2017-01-06T06:30:44.036Z,1033.14
2017-01-06T06:31:49.892Z,1033.13
2017-01-06T06:32:56.051Z,1033.19
2017-01-06T06:34:01.219Z,1033.2
2017-01-06T06:35:06.378Z,1033.22
2017-01-06T06:36:12.532Z,1033.22
2017-01-06T06:37:15.799Z,1033.21
2017-01-06T06:38:21.949Z,1033.19
2017-01-06T06:39:28.110Z,1033.21
2017-01-06T06:40:33.374Z,1033.17
2017-01-06T06:41:39.565Z,1033.21
2017-01-06T06:42:44.755Z,1033.22
2017-01-06T06:43:50.110Z,1033.21
2017-01-06T06:44:55.292Z,1033.17
2017-01-06T06:45:59.596Z,1033.21
2017-01-06T06:47:03.821Z,1033.24
2017-01-06T06:48:09.013Z,1033.2
2017-01-06T06:49:15.170Z,1033.22
2017-01-06T06:50:21.340Z,1033.19
2017-01-06T06:51:27.498Z,1033.15
2017-01-06T06:52:33.685Z,1033.19
2017-01-06T06:53:39.807Z,1033.16
2017-01-06T06:54:46.008Z,1033.16
2017-01-06T06:55:52.164Z,1033.15
2017-01-06T06:56:57.362Z,1033.15
2017-01-06T06:58:01.554Z,1033.18
2017-01-06T06:59:07.705Z,1033.18
2017-01-06T07:00:12.894Z,1033.25
2017-01-06T07:01:18.088Z,1033.28
2017-01-06T07:02:22.319Z,1033.32
2017-01-06T07:03:28.491Z,1033.3
2017-01-06T07:04:34.642Z,1033.34
2017-01-06T07:05:38.862Z,1033.28
2017-01-06T07:06:45.015Z,1033.31
2017-01-06T07:07:51.280Z,1033.28
2017-01-06T07:08:56.444Z,1033.29
2017-01-06T07:10:02.606Z,1033.31
2017-01-06T07:11:07.796Z,1033.36
2017-01-06T07:12:13.954Z,1033.38
2017-01-06T07:13:18.188Z,1033.41
2017-01-06T07:14:23.450Z,1033.41
2017-01-06T07:15:28.718Z,1033.46
2017-01-06T07:16:33.908Z,1033.47
2017-01-06T07:17:40.060Z,1033.49
2017-01-06T07:18:45.241Z,1033.5
2017-01-06T07:19:50.397Z,1033.53
2017-01-06T07:20:55.802Z,1033.53
2017-01-06T07:22:00.083Z,1033.57
2017-01-06T07:23:06.244Z,1033.56
2017-01-06T07:24:09.474Z,1033.58
2017-01-06T07:25:15.665Z,1033.6
2017-01-06T07:26:19.877Z,1033.64
2017-01-06T07:27:24.093Z,1033.62
2017-01-06T07:28:28.292Z,1033.61
2017-01-06T07:29:34.483Z,1033.64
2017-01-06T07:30:39.669Z,1033.63
2017-01-06T07:31:45.825Z,1033.65
2017-01-06T07:32:51.987Z,1033.67
2017-01-06T07:33:57.161Z,1033.65
2017-01-06T07:35:01.366Z,1033.69
2017-01-06T07:36:06.575Z,1033.67
2017-01-06T07:37:11.767Z,1033.67
2017-01-06T07:38:14.030Z,1033.67
2017-01-06T07:39:19.224Z,1033.67
2017-01-06T07:40:25.379Z,1033.65
2017-01-06T07:41:28.613Z,1033.71
2017-01-06T07:42:32.842Z,1033.72
2017-01-06T07:43:39.001Z,1033.73
2017-01-06T07:44:44.185Z,1033.7
2017-01-06T07:45:49.438Z,1033.71
2017-01-06T07:46:55.585Z,1033.75
2017-01-06T07:48:01.736Z,1033.8
2017-01-06T07:49:07.895Z,1033.76
2017-01-06T07:50:12.087Z,1033.79
2017-01-06T07:51:17.280Z,1033.8
2017-01-06T07:52:23.438Z,1033.77
2017-01-06T07:53:28.703Z,1033.77
2017-01-06T07:54:32.919Z,1033.74
2017-01-06T07:55:39.093Z,1033.77
2017-01-06T07:56:45.255Z,1033.74
2017-01-06T07:57:50.409Z,1033.78
2017-01-06T07:58:56.559Z,1033.78
2017-01-06T08:00:01.747Z,1033.75
2017-01-06T08:01:07.906Z,1033.77
2017-01-06T08:02:13.098Z,1033.76
2017-01-06T08:03:17.315Z,1033.76
2017-01-06T08:04:22.523Z,1033.75
2017-01-06T08:05:28.695Z,1033.78
2017-01-06T08:06:33.904Z,1033.79
2017-01-06T08:07:40.056Z,1033.76
2017-01-06T08:08:46.243Z,1033.75
2017-01-06T08:09:52.401Z,1033.72
2017-01-06T08:10:57.560Z,1033.74
2017-01-06T08:12:03.735Z,1033.74
2017-01-06T08:13:08.939Z,1033.78
2017-01-06T08:14:15.196Z,1033.77
2017-01-06T08:15:19.286Z,1033.8
2017-01-06T08:16:25.458Z,1033.73
2017-01-06T08:17:31.622Z,1033.72
2017-01-06T08:18:37.795Z,1033.68
2017-01-06T08:19:43.038Z,1033.66
2017-01-06T08:20:49.164Z,1033.67
2017-01-06T08:21:54.357Z,1033.66
2017-01-06T08:22:57.599Z,1033.71
2017-01-06T08:24:02.759Z,1033.72
2017-01-06T08:25:05.033Z,1033.7
2017-01-06T08:26:10.225Z,1033.76
2017-01-06T08:27:15.415Z,1033.83
2017-01-06T08:28:20.606Z,1033.88
2017-01-06T08:29:24.805Z,1033.9
2017-01-06T08:30:29.035Z,1033.87
2017-01-06T08:31:33.346Z,1033.76
2017-01-06T08:32:38.507Z,1033.82
2017-01-06T08:33:43.710Z,1033.75
2017-01-06T08:34:49.966Z,1033.83
2017-01-06T08:35:55.123Z,1033.82
2017-01-06T08:36:59.332Z,1033.87
2017-01-06T08:38:04.530Z,1033.87
2017-01-06T08:39:10.691Z,1033.84
2017-01-06T08:40:15.888Z,1033.84
2017-01-06T08:41:22.177Z,1033.79
2017-01-06T08:42:27.471Z,1033.78
2017-01-06T08:43:33.635Z,1033.7
2017-01-06T08:44:37.864Z,1033.71
2017-01-06T08:45:42.101Z,1033.74
2017-01-06T08:46:47.241Z,1033.77
2017-01-06T08:47:52.489Z,1033.87
2017-01-06T08:48:57.786Z,1033.82
2017-01-06T08:50:02.968Z,1033.89
2017-01-06T08:51:09.222Z,1033.84
2017-01-06T08:52:14.421Z,1033.88
2017-01-06T08:53:19.635Z,1033.83
2017-01-06T08:54:24.830Z,1033.8
2017-01-06T08:55:30.995Z,1033.79
2017-01-06T08:56:37.161Z,1033.74
2017-01-06T08:57:42.366Z,1033.75
2017-01-06T08:58:46.597Z,1033.76
2017-01-06T08:59:52.877Z,1033.75
2017-01-06T09:00:59.031Z,1033.76
2017-01-06T09:02:04.227Z,1033.79
2017-01-06T09:03:10.462Z,1033.84
2017-01-06T09:04:15.658Z,1033.89
2017-01-06T09:05:20.909Z,1033.88
2017-01-06T09:06:25.139Z,1033.85
2017-01-06T09:07:31.346Z,1033.86
2017-01-06T09:08:37.512Z,1033.81
2017-01-06T09:09:43.652Z,1033.81
2017-01-06T09:10:49.809Z,1033.82
2017-01-06T09:11:53.077Z,1033.86
2017-01-06T09:12:58.271Z,1033.88
2017-01-06T09:14:03.510Z,1033.85
2017-01-06T09:15:08.708Z,1033.76
2017-01-06T09:16:12.953Z,1033.8
2017-01-06T09:17:19.117Z,1033.79
2017-01-06T09:18:24.338Z,1033.76
2017-01-06T09:19:30.481Z,1033.71
2017-01-06T09:20:35.740Z,1033.73
2017-01-06T09:21:38.967Z,1033.74
2017-01-06T09:22:45.136Z,1033.75
2017-01-06T09:23:51.305Z,1033.75
2017-01-06T09:24:54.543Z,1033.72
2017-01-06T09:25:58.775Z,1033.72
2017-01-06T09:27:05.002Z,1033.69
2017-01-06T09:28:11.106Z,1033.73
2017-01-06T09:29:16.299Z,1033.76
2017-01-06T09:30:20.532Z,1033.85
2017-01-06T09:31:24.862Z,1033.73
2017-01-06T09:32:29.091Z,1033.7
2017-01-06T09:33:35.351Z,1033.71
2017-01-06T09:34:40.155Z,1033.73
2017-01-06T09:35:45.365Z,1033.77
2017-01-06T09:36:51.532Z,1033.87
2017-01-06T09:37:56.737Z,1033.95
2017-01-06T09:39:01.897Z,1033.88
2017-01-06T09:40:07.109Z,1033.82
2017-01-06T09:41:12.409Z,1033.83
2017-01-06T09:42:17.608Z,1033.82
2017-01-06T09:43:20.921Z,1033.8
2017-01-06T09:44:25.126Z,1033.75
2017-01-06T09:45:28.384Z,1033.76
2017-01-06T09:46:32.612Z,1033.72
2017-01-06T09:47:38.771Z,1033.73
2017-01-06T09:48:43.933Z,1033.67
2017-01-06T09:49:48.144Z,1033.66
2017-01-06T09:50:54.339Z,1033.73
2017-01-06T09:52:00.469Z,1033.65
2017-01-06T09:53:06.650Z,1033.62
2017-01-06T09:54:12.809Z,1033.63
2017-01-06T09:55:19.014Z,1033.54
2017-01-06T09:56:24.177Z,1033.52
2017-01-06T09:57:30.375Z,1033.57
2017-01-06T09:58:36.507Z,1033.49
2017-01-06T09:59:42.682Z,1033.48
2017-01-06T10:00:48.904Z,1033.44
2017-01-06T10:01:52.191Z,1033.37
2017-01-06T10:02:57.388Z,1033.36
2017-01-06T10:04:01.701Z,1033.35
2017-01-06T10:05:05.907Z,1033.3
2017-01-06T10:06:11.105Z,1033.31
2017-01-06T10:07:16.274Z,1033.37
2017-01-06T10:08:21.444Z,1033.43
2017-01-06T10:09:27.615Z,1033.42
2017-01-06T10:10:33.774Z,1033.49
2017-01-06T10:11:38.970Z,1033.51
2017-01-06T10:12:42.209Z,1033.51
2017-01-06T10:13:46.434Z,1033.51
2017-01-06T10:14:51.628Z,1033.48
2017-01-06T10:15:57.805Z,1033.5
2017-01-06T10:17:01.031Z,1033.48
2017-01-06T10:18:06.279Z,1033.46
2017-01-06T10:19:12.484Z,1033.42
2017-01-06T10:20:18.664Z,1033.42
2017-01-06T10:21:23.855Z,1033.41
2017-01-06T10:22:28.068Z,1033.42
2017-01-06T10:23:33.266Z,1033.35
2017-01-06T10:24:39.432Z,1033.31
2017-01-06T10:25:45.645Z,1033.29
2017-01-06T10:26:51.813Z,1033.34
2017-01-06T10:27:56.999Z,1033.32
2017-01-06T10:29:03.202Z,1033.37
2017-01-06T10:30:09.337Z,1033.41
2017-01-06T10:31:14.542Z,1033.35
2017-01-06T10:32:19.707Z,1033.33
2017-01-06T10:33:25.878Z,1033.31
2017-01-06T10:34:31.113Z,1033.34
2017-01-06T10:35:35.402Z,1033.32
2017-01-06T10:36:40.596Z,1033.31
2017-01-06T10:37:45.792Z,1033.3
2017-01-06T10:38:51.005Z,1033.28
2017-01-06T10:39:57.176Z,1033.25
2017-01-06T10:41:02.333Z,1033.25
2017-01-06T10:42:08.503Z,1033.21
2017-01-06T10:43:12.729Z,1033.24
2017-01-06T10:44:17.925Z,1033.25
2017-01-06T10:45:23.087Z,1033.28
2017-01-06T10:46:29.257Z,1033.21
2017-01-06T10:47:34.424Z,1033.22
2017-01-06T10:48:40.598Z,1033.22
2017-01-06T10:49:44.839Z,1033.24
2017-01-06T10:50:49.118Z,1033.27
2017-01-06T10:51:55.283Z,1033.27
2017-01-06T10:53:01.454Z,1033.32
2017-01-06T10:54:06.664Z,1033.35
2017-01-06T10:55:10.861Z,1033.36
2017-01-06T10:56:15.093Z,1033.43
2017-01-06T10:57:20.407Z,1033.46
2017-01-06T10:58:25.746Z,1033.45
2017-01-06T10:59:30.997Z,1033.41
2017-01-06T11:00:37.161Z,1033.38
2017-01-06T11:01:42.364Z,1033.35
2017-01-06T11:02:47.676Z,1033.4
2017-01-06T11:03:53.813Z,1033.36
2017-01-06T11:04:59.976Z,1033.37
2017-01-06T11:06:04.246Z,1033.39
2017-01-06T11:07:08.496Z,1033.38
2017-01-06T11:08:13.694Z,1033.4
2017-01-06T11:09:19.858Z,1033.4
2017-01-06T11:10:24.120Z,1033.33
2017-01-06T11:11:29.312Z,1033.26
2017-01-06T11:12:32.631Z,1033.28
2017-01-06T11:13:38.790Z,1033.24
2017-01-06T11:14:44.038Z,1033.29
2017-01-06T11:15:49.273Z,1033.3
2017-01-06T11:16:55.417Z,1033.25
2017-01-06T11:18:00.585Z,1033.23
2017-01-06T11:19:06.759Z,1033.28
2017-01-06T11:20:12.922Z,1033.23
2017-01-06T11:21:18.190Z,1033.23
2017-01-06T11:22:22.443Z,1033.27
2017-01-06T11:23:25.786Z,1033.22
2017-01-06T11:24:30.998Z,1033.2
2017-01-06T11:25:37.156Z,1033.21
2017-01-06T11:26:40.387Z,1033.21
2017-01-06T11:27:45.597Z,1033.26
2017-01-06T11:28:49.804Z,1033.27
2017-01-06T11:29:55.004Z,1033.25
2017-01-06T11:31:00.200Z,1033.25
2017-01-06T11:32:05.393Z,1033.28
2017-01-06T11:33:11.606Z,1033.3
2017-01-06T11:34:15.808Z,1033.24
2017-01-06T11:35:21.006Z,1033.21
2017-01-06T11:36:27.204Z,1033.24
2017-01-06T11:37:32.362Z,1033.24
2017-01-06T11:38:37.548Z,1033.2
2017-01-06T11:39:42.756Z,1033.16
2017-01-06T11:40:46.019Z,1033.15
2017-01-06T11:41:49.894Z,1033.12
2017-01-06T11:42:53.163Z,1033.14
2017-01-06T11:43:59.323Z,1033.08
2017-01-06T11:45:05.497Z,1033.11
2017-01-06T11:46:09.723Z,1033.06
2017-01-06T11:47:14.925Z,1033.03
2017-01-06T11:48:20.114Z,1032.98
2017-01-06T11:49:25.323Z,1033.02
2017-01-06T11:50:29.552Z,1033.04
2017-01-06T11:51:33.854Z,1033.08
2017-01-06T11:52:40.015Z,1033.1
2017-01-06T11:53:45.254Z,1033.11
2017-01-06T11:54:51.394Z,1033.09
2017-01-06T11:55:55.596Z,1033.13
2017-01-06T11:56:59.816Z,1033.12
2017-01-06T11:58:05.012Z,1033.06
2017-01-06T11:59:11.174Z,1033.01
2017-01-06T12:00:17.387Z,1033.02
2017-01-06T12:01:22.552Z,1032.94
2017-01-06T12:02:28.722Z,1032.94
2017-01-06T12:03:33.990Z,1032.95
2017-01-06T12:04:38.247Z,1032.91
2017-01-06T12:05:43.436Z,1032.86
2017-01-06T12:06:48.636Z,1032.88
2017-01-06T12:07:54.797Z,1032.87
2017-01-06T12:09:00.959Z,1032.83
2017-01-06T12:10:07.124Z,1032.88
2017-01-06T12:11:13.338Z,1032.84
2017-01-06T12:12:17.837Z,1032.8
2017-01-06T12:13:23.081Z,1032.77
2017-01-06T12:14:29.240Z,1032.69
2017-01-06T12:15:34.449Z,1032.7
2017-01-06T12:16:39.648Z,1032.69
2017-01-06T12:17:45.805Z,1032.68
2017-01-06T12:18:50.031Z,1032.6
2017-01-06T12:19:54.266Z,1032.64
2017-01-06T12:20:59.461Z,1032.64
2017-01-06T12:22:04.663Z,1032.61
2017-01-06T12:23:10.859Z,1032.59
2017-01-06T12:24:16.024Z,1032.58
2017-01-06T12:25:21.219Z,1032.51
2017-01-06T12:26:26.407Z,1032.52
2017-01-06T12:27:31.697Z,1032.51
2017-01-06T12:28:37.863Z,1032.51
2017-01-06T12:29:42.084Z,1032.42
2017-01-06T12:30:47.279Z,1032.38
2017-01-06T12:31:53.436Z,1032.36
2017-01-06T12:32:57.667Z,1032.34
2017-01-06T12:34:02.861Z,1032.28
2017-01-06T12:35:09.086Z,1032.29
2017-01-06T12:36:13.298Z,1032.25
2017-01-06T12:37:18.460Z,1032.23
2017-01-06T12:38:22.689Z,1032.2
2017-01-06T12:39:27.877Z,1032.18
2017-01-06T12:40:33.110Z,1032.21
2017-01-06T12:41:37.302Z,1032.17
2017-01-06T12:42:42.500Z,1032.19
2017-01-06T12:43:46.753Z,1032.1
2017-01-06T12:44:49.984Z,1032.12
2017-01-06T12:45:56.226Z,1032.08
2017-01-06T12:47:01.424Z,1032.09
2017-01-06T12:48:06.615Z,1032.1
2017-01-06T12:49:12.771Z,1032.13
2017-01-06T12:50:16.021Z,1032.09
2017-01-06T12:51:22.182Z,1032.09
2017-01-06T12:52:28.354Z,1032.07
2017-01-06T12:53:34.511Z,1032.06
2017-01-06T12:54:40.679Z,1032.06
2017-01-06T12:55:46.854Z,1032.07
2017-01-06T12:56:53.011Z,1032.04
2017-01-06T12:57:58.260Z,1032.05
2017-01-06T12:59:02.492Z,1032.09
2017-01-06T13:00:07.726Z,1032.02
2017-01-06T13:01:13.843Z,1032.08
2017-01-06T13:02:18.074Z,1032.11
2017-01-06T13:03:23.414Z,1032.12
2017-01-06T13:04:29.577Z,1032.06
2017-01-06T13:05:34.881Z,1032.05
2017-01-06T13:06:41.015Z,1032.09
2017-01-06T13:07:44.288Z,1032.01
2017-01-06T13:08:50.443Z,1032.02
2017-01-06T13:09:53.671Z,1031.95
2017-01-06T13:10:57.902Z,1031.93
2017-01-06T13:12:04.067Z,1031.95
2017-01-06T13:13:10.220Z,1031.98
2017-01-06T13:14:13.512Z,1031.97